Time;durP1;ratioP1;P1;durP2;ratioP2;P2;SDS_P1;SDS_P2;PMS_P1;PMS_P2;Temp;Humidity;BMP_temperature;BMP_pressure;BME280_temperature;BME280_humidity;BME280_pressure;Samples;Min_cycle;Max_cycle;Signal;HPM_P1;HPM_P2
2022/11/19 00:01:07;;;;;;;3.72;2.00;;;6.70;99.90;;;;;;5057533;28;20226;-83
2022/11/19 00:03:36;;;;;;;2.25;1.85;;;6.70;99.90;;;;;;5058949;28;20210;-83
2022/11/19 00:06:05;;;;;;;2.22;2.13;;;6.60;99.90;;;;;;5058915;28;20218;-83
2022/11/19 00:08:32;;;;;;;1.95;1.85;;;6.60;99.90;;;;;;5057802;28;20201;-83
2022/11/19 00:11:04;;;;;;;2.05;1.88;;;6.70;99.90;;;;;;5056642;28;20201;-83
2022/11/19 00:13:30;;;;;;;1.92;1.83;;;6.80;99.90;;;;;;5058444;28;20255;-85
2022/11/19 00:16:02;;;;;;;3.88;2.28;;;6.70;99.90;;;;;;5059428;28;20200;-82
2022/11/19 00:18:30;;;;;;;2.25;2.05;;;6.70;99.90;;;;;;5059107;28;20193;-83
2022/11/19 00:21:02;;;;;;;2.95;2.17;;;6.80;99.90;;;;;;5057367;28;20584;-83
2022/11/19 00:23:29;;;;;;;3.47;2.28;;;6.90;99.90;;;;;;5057447;28;20300;-82
2022/11/19 00:25:56;;;;;;;2.78;1.80;;;6.90;99.90;;;;;;5057134;28;20230;-83
2022/11/19 00:28:23;;;;;;;2.40;2.05;;;7.00;99.90;;;;;;5057282;28;20198;-83
2022/11/19 00:30:49;;;;;;;2.42;2.22;;;7.00;99.90;;;;;;5060029;28;20208;-83
2022/11/19 00:33:16;;;;;;;2.08;1.95;;;7.00;99.90;;;;;;5064872;28;20198;-83
2022/11/19 00:35:44;;;;;;;2.55;1.60;;;7.10;99.90;;;;;;5059089;28;20202;-83
2022/11/19 00:38:11;;;;;;;3.70;3.50;;;7.10;99.90;;;;;;5057065;28;20201;-83
2022/11/19 00:40:38;;;;;;;2.10;1.80;;;7.10;99.90;;;;;;5057590;28;20221;-83
2022/11/19 00:45:49;;;;;;;2.92;2.38;;;7.00;99.90;;;;;;5062465;28;20232;-83
2022/11/19 00:48:15;;;;;;;1.95;1.85;;;7.00;99.90;;;;;;5061986;28;20201;-83
2022/11/19 00:50:44;;;;;;;2.40;2.20;;;7.10;99.90;;;;;;5061755;28;20580;-83
2022/11/19 00:53:10;;;;;;;3.67;1.85;;;7.20;99.90;;;;;;5129357;22;20234;-84
2022/11/19 00:55:37;;;;;;;2.65;2.35;;;7.10;99.90;;;;;;5060275;28;20676;-84
2022/11/19 00:58:04;;;;;;;3.33;3.03;;;7.20;99.90;;;;;;5060124;28;20205;-84
2022/11/19 01:00:31;;;;;;;1.88;1.65;;;7.10;99.90;;;;;;5060361;28;20284;-84
2022/11/19 01:02:58;;;;;;;2.97;2.65;;;7.20;99.90;;;;;;5058721;28;20218;-84
2022/11/19 01:05:24;;;;;;;2.15;1.67;;;7.20;99.90;;;;;;5057304;28;20226;-84
2022/11/19 01:07:53;;;;;;;2.25;1.80;;;7.40;99.90;;;;;;5057873;28;20198;-84
2022/11/19 01:10:20;;;;;;;2.17;1.98;;;7.40;99.90;;;;;;5059098;28;20589;-84
2022/11/19 01:15:31;;;;;;;3.63;1.65;;;7.50;99.90;;;;;;5057383;28;20201;-84
2022/11/19 01:17:58;;;;;;;3.60;1.90;;;7.50;99.90;;;;;;5060458;28;20214;-84
2022/11/19 01:20:25;;;;;;;1.60;1.50;;;7.40;99.90;;;;;;5056871;28;20217;-84
2022/11/19 01:22:53;;;;;;;1.85;1.30;;;7.40;99.90;;;;;;5058323;28;20225;-84
2022/11/19 01:25:20;;;;;;;1.17;1.17;;;7.40;99.90;;;;;;5055579;28;20200;-84
2022/11/19 01:27:46;;;;;;;1.38;1.27;;;7.50;99.90;;;;;;5057852;28;20197;-84
2022/11/19 01:30:13;;;;;;;1.85;1.20;;;7.50;99.90;;;;;;5042849;28;20195;-84
2022/11/19 01:32:40;;;;;;;1.70;1.60;;;7.50;99.90;;;;;;5060340;28;20221;-84
2022/11/19 01:35:08;;;;;;;1.13;1.13;;;7.50;99.90;;;;;;5056270;28;20577;-84
2022/11/19 01:37:35;;;;;;;1.45;0.98;;;7.40;99.90;;;;;;5055785;28;20234;-84
2022/11/19 01:40:03;;;;;;;1.45;1.35;;;7.50;99.90;;;;;;5044338;28;20203;-84
2022/11/19 01:42:52;;;;;;;2.47;1.50;;;7.40;99.90;;;;;;5049833;28;20600;-84
2022/11/19 01:45:27;;;;;;;1.40;1.30;;;7.20;99.90;;;;;;5046411;28;20210;-84
2022/11/19 01:47:55;;;;;;;2.33;1.80;;;7.30;99.90;;;;;;5053547;28;20247;-84
2022/11/19 01:50:22;;;;;;;3.95;2.20;;;7.30;99.90;;;;;;5050581;28;20236;-84
2022/11/19 01:52:49;;;;;;;2.45;1.98;;;7.20;99.90;;;;;;5043282;28;20235;-84
2022/11/19 01:55:18;;;;;;;2.88;2.30;;;7.20;99.90;;;;;;5055455;28;20216;-84
2022/11/19 01:57:45;;;;;;;2.75;2.25;;;7.10;99.90;;;;;;5054372;28;20205;-84
2022/11/19 02:00:13;;;;;;;2.83;2.30;;;7.00;99.90;;;;;;5057289;28;20201;-84
2022/11/19 02:02:40;;;;;;;2.72;2.50;;;7.00;99.90;;;;;;5045036;28;20221;-84
2022/11/19 02:05:07;;;;;;;4.32;2.85;;;7.00;99.90;;;;;;5041209;28;20269;-83
2022/11/19 02:07:35;;;;;;;3.60;2.70;;;7.00;99.90;;;;;;5056138;28;20225;-84
2022/11/19 02:10:05;;;;;;;3.35;3.00;;;7.10;99.90;;;;;;5056681;28;20216;-84
2022/11/19 02:12:45;;;;;;;3.95;3.30;;;7.00;99.90;;;;;;5055701;28;20218;-84
2022/11/19 02:15:23;;;;;;;4.90;3.63;;;7.00;99.90;;;;;;5054707;28;20212;-84
2022/11/19 02:18:05;;;;;;;5.32;4.82;;;7.00;99.90;;;;;;5048394;28;20667;-84
2022/11/19 02:20:49;;;;;;;4.00;3.67;;;6.90;99.90;;;;;;5039231;28;20221;-84
2022/11/19 02:23:51;;;;;;;5.57;3.05;;;7.00;99.90;;;;;;5042016;28;20230;-84
2022/11/19 02:27:11;;;;;;;3.88;3.47;;;7.10;99.90;;;;;;5043942;28;20225;-84
2022/11/19 02:30:03;;;;;;;4.00;3.65;;;6.90;99.90;;;;;;4991172;28;20200;-84
2022/11/19 02:32:33;;;;;;;4.40;4.00;;;7.00;99.90;;;;;;4985994;28;20256;-84
2022/11/19 02:35:08;;;;;;;5.97;3.28;;;6.90;99.90;;;;;;5033409;28;20213;-84
2022/11/19 02:37:43;;;;;;;4.45;3.78;;;6.90;99.90;;;;;;5041915;28;20194;-84
2022/11/19 02:40:16;;;;;;;4.97;4.47;;;6.90;99.90;;;;;;5045914;28;20207;-84
2022/11/19 02:42:48;;;;;;;7.80;4.43;;;6.90;99.90;;;;;;5039726;28;20222;-84
2022/11/19 02:45:20;;;;;;;4.95;3.65;;;7.00;99.90;;;;;;5040712;28;20209;-84
2022/11/19 02:47:51;;;;;;;6.32;5.28;;;7.10;99.90;;;;;;5052251;28;20599;-84
2022/11/19 02:50:20;;;;;;;4.72;4.18;;;7.00;99.90;;;;;;5059627;28;20205;-84
2022/11/19 02:52:48;;;;;;;4.18;3.80;;;6.90;99.90;;;;;;5049786;28;20240;-84
2022/11/19 02:55:16;;;;;;;5.13;4.10;;;7.00;99.90;;;;;;5044029;28;20210;-84
2022/11/19 02:57:47;;;;;;;5.63;3.50;;;7.00;99.90;;;;;;5056250;28;20205;-84
2022/11/19 03:06:26;;;;;;;3.72;3.42;;;7.10;99.90;;;;;;5042924;28;20216;-84
2022/11/19 03:08:53;;;;;;;4.43;4.03;;;7.10;99.90;;;;;;5040478;28;20203;-84
2022/11/19 03:11:22;;;;;;;6.03;3.45;;;7.10;99.90;;;;;;5040262;28;20599;-83
2022/11/19 03:16:42;;;;;;;3.90;3.38;;;7.20;99.90;;;;;;5038481;28;20205;-85
2022/11/19 03:19:20;;;;;;;4.22;3.92;;;7.20;99.90;;;;;;5049899;28;20202;-84
2022/11/19 03:21:54;;;;;;;4.10;3.50;;;7.20;99.90;;;;;;5052836;28;20717;-83
2022/11/19 03:24:27;;;;;;;4.82;3.72;;;7.10;99.90;;;;;;5051628;28;20208;-84
2022/11/19 03:26:59;;;;;;;3.53;3.20;;;7.10;99.90;;;;;;5054662;28;20233;-84
2022/11/19 03:29:27;;;;;;;4.10;3.80;;;7.00;99.90;;;;;;5052798;28;20212;-84
2022/11/19 03:31:59;;;;;;;3.75;3.45;;;7.00;99.90;;;;;;5038838;28;20226;-84
2022/11/19 03:34:29;;;;;;;5.50;3.60;;;7.00;99.90;;;;;;5040197;28;20664;-84
2022/11/19 03:37:00;;;;;;;3.80;3.50;;;6.90;99.90;;;;;;5042012;28;20186;-84
2022/11/19 03:39:27;;;;;;;2.97;2.72;;;7.00;99.90;;;;;;5054511;28;20291;-84
2022/11/19 03:41:56;;;;;;;3.63;3.00;;;7.10;99.90;;;;;;5039182;28;20230;-84
2022/11/19 03:44:26;;;;;;;4.60;2.88;;;7.20;99.90;;;;;;5057006;28;20205;-85
2022/11/19 03:46:57;;;;;;;3.83;3.30;;;7.20;99.90;;;;;;5057446;28;20667;-84
2022/11/19 03:49:30;;;;;;;3.58;3.28;;;7.20;99.90;;;;;;5057717;28;20216;-84
2022/11/19 03:52:03;;;;;;;5.70;3.40;;;7.30;99.90;;;;;;5056459;28;20234;-84
2022/11/19 03:54:30;;;;;;;3.55;3.25;;;7.30;99.90;;;;;;5044722;28;20218;-84
2022/11/19 03:56:58;;;;;;;3.33;3.05;;;7.30;99.90;;;;;;5057165;28;20209;-84
2022/11/19 03:59:26;;;;;;;3.13;2.92;;;7.40;99.90;;;;;;5038019;28;20217;-84
2022/11/19 04:01:57;;;;;;;3.75;3.13;;;7.40;99.90;;;;;;5037886;28;20226;-84
2022/11/19 04:04:36;;;;;;;3.90;3.08;;;7.50;99.90;;;;;;5037637;28;20206;-84
2022/11/19 04:07:08;;;;;;;3.05;2.85;;;7.30;99.90;;;;;;5037256;28;20305;-84
2022/11/19 04:09:35;;;;;;;3.83;3.30;;;7.40;99.90;;;;;;5037082;28;20203;-84
2022/11/19 04:12:02;;;;;;;3.90;3.13;;;7.40;99.90;;;;;;5037262;28;20222;-84
2022/11/19 04:14:29;;;;;;;4.03;3.50;;;7.50;99.90;;;;;;5036809;28;20194;-84
2022/11/19 04:16:55;;;;;;;3.15;2.85;;;7.50;99.90;;;;;;5036951;28;20687;-84
2022/11/19 04:19:22;;;;;;;2.50;2.30;;;7.40;99.90;;;;;;5036996;28;20219;-84
2022/11/19 04:21:50;;;;;;;4.47;3.10;;;7.30;99.90;;;;;;5036954;28;20226;-84
2022/11/19 04:24:18;;;;;;;3.30;3.08;;;7.20;99.90;;;;;;5037478;28;20203;-84
2022/11/19 04:26:45;;;;;;;6.03;3.10;;;7.30;99.90;;;;;;5037138;28;20218;-84
2022/11/19 04:29:12;;;;;;;4.07;3.28;;;7.20;99.90;;;;;;5036859;28;20206;-84
2022/11/19 04:31:38;;;;;;;2.63;2.40;;;7.20;99.90;;;;;;5036592;28;20305;-84
2022/11/19 04:34:05;;;;;;;2.95;2.75;;;7.20;99.90;;;;;;5036089;28;20202;-84
2022/11/19 04:36:32;;;;;;;3.30;2.95;;;7.20;99.90;;;;;;5035514;28;20205;-84
2022/11/19 04:38:59;;;;;;;3.03;2.70;;;7.20;99.90;;;;;;5036176;28;20210;-84
2022/11/19 04:41:27;;;;;;;4.28;3.05;;;7.20;99.90;;;;;;5035690;28;20219;-84
2022/11/19 04:43:53;;;;;;;4.53;3.65;;;7.10;99.90;;;;;;5036859;28;20217;-83
2022/11/19 04:46:20;;;;;;;3.63;3.38;;;6.90;99.90;;;;;;5036795;28;20226;-84
2022/11/19 04:48:47;;;;;;;7.35;4.03;;;7.00;99.90;;;;;;5036625;28;20209;-84
2022/11/19 04:51:14;;;;;;;5.20;4.30;;;7.00;99.90;;;;;;5035920;28;20202;-84
2022/11/19 04:53:40;;;;;;;4.05;3.75;;;7.00;99.90;;;;;;5037043;28;20639;-84
2022/11/19 04:56:07;;;;;;;4.50;4.10;;;7.10;99.90;;;;;;5036399;28;20206;-84
2022/11/19 04:58:36;;;;;;;4.03;3.72;;;7.10;99.90;;;;;;5035480;28;20206;-84
2022/11/19 05:01:03;;;;;;;4.05;3.75;;;7.10;99.90;;;;;;5035659;28;20207;-83
2022/11/19 05:03:30;;;;;;;4.13;3.85;;;7.10;99.90;;;;;;5036333;28;20230;-84
2022/11/19 05:05:56;;;;;;;4.20;3.78;;;7.10;99.90;;;;;;5036113;28;20803;-84
2022/11/19 05:08:24;;;;;;;4.07;3.78;;;7.20;99.90;;;;;;5035544;28;20317;-84
2022/11/19 05:10:51;;;;;;;6.18;4.15;;;7.10;99.90;;;;;;5036466;28;20214;-84
2022/11/19 05:13:18;;;;;;;4.78;4.43;;;7.00;99.90;;;;;;5035693;28;20237;-84
2022/11/19 05:15:46;;;;;;;4.63;4.32;;;7.00;99.90;;;;;;5034962;28;20598;-84
2022/11/19 05:18:13;;;;;;;4.60;4.20;;;7.10;99.90;;;;;;5035806;28;20194;-84
2022/11/19 05:20:40;;;;;;;4.53;4.13;;;7.20;99.90;;;;;;5043880;28;20202;-84
2022/11/19 05:23:07;;;;;;;5.15;4.70;;;7.20;99.90;;;;;;5036781;28;20218;-84
2022/11/19 05:25:33;;;;;;;4.90;4.57;;;7.40;99.90;;;;;;5036967;28;20202;-83
2022/11/19 05:28:00;;;;;;;6.65;4.50;;;7.30;99.90;;;;;;5049270;28;20235;-83
2022/11/19 05:30:27;;;;;;;5.15;3.95;;;7.30;99.90;;;;;;5038218;28;20221;-84
2022/11/19 05:32:55;;;;;;;5.78;4.40;;;7.20;99.90;;;;;;5038311;28;20230;-83
2022/11/19 05:35:22;;;;;;;5.93;5.35;;;7.20;99.90;;;;;;5038822;28;20229;-84
2022/11/19 05:37:49;;;;;;;5.63;5.22;;;7.10;99.90;;;;;;5038925;28;20202;-84
2022/11/19 05:40:16;;;;;;;6.38;4.85;;;7.00;99.90;;;;;;5051234;28;20205;-84
2022/11/19 05:42:43;;;;;;;6.82;5.15;;;7.00;99.90;;;;;;5051406;28;20703;-84
2022/11/19 05:45:11;;;;;;;9.10;4.70;;;7.20;99.90;;;;;;5039013;28;20214;-84
2022/11/19 05:47:38;;;;;;;6.05;5.45;;;7.20;99.90;;;;;;5039045;28;20230;-84
2022/11/19 05:50:07;;;;;;;4.13;3.83;;;7.00;99.90;;;;;;5038186;28;20209;-83
2022/11/19 05:52:34;;;;;;;4.90;4.50;;;7.10;99.90;;;;;;5037652;28;20233;-84
2022/11/19 05:55:01;;;;;;;5.30;4.70;;;7.00;99.90;;;;;;5039124;28;20203;-83
2022/11/19 05:57:27;;;;;;;5.10;4.45;;;6.90;99.90;;;;;;5042896;28;20202;-84
2022/11/19 05:59:54;;;;;;;4.35;3.95;;;6.80;99.90;;;;;;5054825;28;20284;-84
2022/11/19 06:02:21;;;;;;;4.15;3.75;;;6.80;99.90;;;;;;5053344;28;20228;-84
2022/11/19 06:04:48;;;;;;;5.07;4.57;;;6.90;99.90;;;;;;5057512;28;20210;-83
2022/11/19 06:07:16;;;;;;;5.40;4.03;;;6.90;99.90;;;;;;5052625;28;20588;-83
2022/11/19 06:09:42;;;;;;;4.30;3.90;;;7.00;99.90;;;;;;5053678;28;20225;-83
2022/11/19 06:12:09;;;;;;;4.63;4.13;;;7.10;99.90;;;;;;5042619;28;20703;-84
2022/11/19 06:14:36;;;;;;;4.07;3.75;;;7.00;99.90;;;;;;5037367;28;20205;-84
2022/11/19 06:17:03;;;;;;;3.50;3.20;;;7.10;99.90;;;;;;5038258;28;20205;-83
2022/11/19 06:19:30;;;;;;;4.47;3.92;;;7.20;99.90;;;;;;5038205;28;20206;-83
2022/11/19 06:21:56;;;;;;;3.75;3.45;;;7.10;99.90;;;;;;5037840;28;20223;-84
2022/11/19 06:24:24;;;;;;;3.72;3.42;;;7.10;99.90;;;;;;5037781;28;20213;-84
2022/11/19 06:26:51;;;;;;;4.45;3.60;;;7.10;99.90;;;;;;5037748;28;20237;-84
2022/11/19 06:29:19;;;;;;;3.45;3.25;;;7.10;99.90;;;;;;5041335;28;20202;-84
2022/11/19 06:31:46;;;;;;;5.75;4.28;;;7.00;99.90;;;;;;5053222;28;20226;-83
2022/11/19 06:34:13;;;;;;;4.45;3.50;;;7.00;99.90;;;;;;5050313;28;20225;-84
2022/11/19 06:36:40;;;;;;;4.13;3.83;;;7.20;99.90;;;;;;5041476;28;20225;-84
2022/11/19 06:39:07;;;;;;;6.13;3.58;;;7.10;99.90;;;;;;5054512;28;20198;-84
2022/11/19 06:41:35;;;;;;;4.88;3.30;;;7.10;99.90;;;;;;5056830;28;20217;-84
2022/11/19 06:44:02;;;;;;;3.47;3.17;;;7.20;99.90;;;;;;5054356;28;20294;-84
2022/11/19 06:46:29;;;;;;;3.92;3.63;;;7.10;99.90;;;;;;5049344;28;20655;-84
2022/11/19 06:48:56;;;;;;;3.90;3.42;;;7.10;99.90;;;;;;5038118;28;20202;-84
2022/11/19 07:13:18;;;;;;;3.50;3.30;;;7.00;99.90;;;;;;4884138;29;20271;-87
2022/11/19 07:16:29;;;;;;;4.28;3.83;;;6.90;99.90;;;;;;4944590;28;20193;-87
2022/11/19 07:22:13;;;;;;;3.15;2.78;;;7.00;99.90;;;;;;5071171;22;20232;-82
2022/11/19 07:24:40;;;;;;;3.80;3.50;;;7.10;99.90;;;;;;5058012;28;20220;-85
2022/11/19 07:27:06;;;;;;;2.92;2.45;;;7.00;99.90;;;;;;5059954;28;20465;-84
2022/11/19 07:29:35;;;;;;;2.60;2.40;;;7.00;99.90;;;;;;5059659;28;20666;-82
2022/11/19 07:32:02;;;;;;;3.17;2.50;;;7.10;99.90;;;;;;5060906;28;20221;-84
2022/11/19 07:34:28;;;;;;;2.60;2.20;;;7.10;99.90;;;;;;5059017;28;20567;-83
2022/11/19 07:36:55;;;;;;;2.88;2.67;;;7.10;99.90;;;;;;5058598;28;20674;-84
2022/11/19 07:39:22;;;;;;;2.30;2.10;;;7.10;99.90;;;;;;5057766;28;20208;-83
2022/11/19 07:44:46;;;;;;;2.35;2.15;;;7.10;99.90;;;;;;4996151;28;20204;-83
2022/11/19 07:47:13;;;;;;;3.13;2.83;;;7.20;99.90;;;;;;5043168;28;20596;-83
2022/11/19 07:49:40;;;;;;;3.33;3.03;;;7.10;99.90;;;;;;5059524;28;20574;-83
2022/11/19 07:52:06;;;;;;;4.32;2.95;;;7.10;99.90;;;;;;5059546;28;20222;-84
2022/11/19 07:54:33;;;;;;;2.40;2.17;;;7.20;99.90;;;;;;5059010;28;20205;-84
2022/11/19 07:57:00;;;;;;;2.22;2.03;;;7.20;99.90;;;;;;5055011;28;20209;-83
2022/11/19 07:59:27;;;;;;;4.50;2.58;;;7.30;99.90;;;;;;5055098;28;20201;-84
2022/11/19 08:01:55;;;;;;;2.63;1.98;;;7.20;99.90;;;;;;5059654;28;20602;-81
2022/11/19 08:04:22;;;;;;;2.83;2.30;;;7.30;99.90;;;;;;5057310;28;20284;-84
2022/11/19 08:06:48;;;;;;;3.00;2.30;;;7.30;99.90;;;;;;5061739;28;20228;-84
2022/11/19 08:09:15;;;;;;;1.98;1.88;;;7.40;99.90;;;;;;5060036;28;20202;-84
2022/11/19 08:11:42;;;;;;;1.77;1.55;;;7.40;99.90;;;;;;5061041;28;20236;-84
2022/11/19 08:14:11;;;;;;;1.55;1.33;;;7.40;99.90;;;;;;5060623;28;20216;-84
2022/11/19 08:19:38;;;;;;;10.30;7.65;;;7.70;99.90;;;;;;5018608;28;20196;-84
2022/11/19 08:22:04;;;;;;;1.88;1.77;;;7.70;99.90;;;;;;5017280;28;20226;-84
2022/11/19 08:24:31;;;;;;;1.70;1.60;;;7.60;99.90;;;;;;5036701;28;20202;-84
2022/11/19 08:26:58;;;;;;;1.42;1.30;;;7.70;99.90;;;;;;5060370;28;20603;-85
2022/11/19 08:29:25;;;;;;;1.92;1.83;;;7.80;99.90;;;;;;5060191;28;20203;-84
2022/11/19 08:31:51;;;;;;;1.88;1.30;;;7.80;99.90;;;;;;5059891;28;20231;-85
2022/11/19 08:34:18;;;;;;;1.77;1.63;;;7.80;99.90;;;;;;5060152;28;20202;-84
2022/11/19 08:36:46;;;;;;;1.67;1.58;;;7.80;99.90;;;;;;5060832;28;20205;-84
2022/11/19 08:39:13;;;;;;;1.92;1.77;;;8.00;99.90;;;;;;5059915;28;20195;-82
2022/11/19 08:44:24;;;;;;;2.10;1.90;;;8.00;99.90;;;;;;5060554;28;20208;-82
2022/11/19 08:46:51;;;;;;;1.67;1.58;;;8.10;99.90;;;;;;5061167;28;20202;-83
2022/11/19 08:49:18;;;;;;;2.75;2.50;;;8.20;99.90;;;;;;5062421;28;20225;-82
2022/11/19 08:51:46;;;;;;;2.28;1.98;;;8.30;99.90;;;;;;5055354;28;20225;-81
2022/11/19 08:54:13;;;;;;;2.00;1.90;;;8.30;99.90;;;;;;5051214;28;20209;-80
2022/11/19 08:56:39;;;;;;;1.25;1.15;;;8.40;99.90;;;;;;5052936;28;20214;-80
2022/11/19 08:59:06;;;;;;;1.30;1.20;;;8.40;99.90;;;;;;5052847;28;20194;-80
2022/11/19 09:01:33;;;;;;;1.40;1.17;;;8.40;99.90;;;;;;5052906;28;20220;-80
2022/11/19 09:03:59;;;;;;;2.03;1.40;;;8.60;99.90;;;;;;5052935;28;20205;-81
2022/11/19 09:06:26;;;;;;;2.45;1.35;;;8.60;99.90;;;;;;5057027;28;20206;-80
2022/11/19 09:08:54;;;;;;;1.30;1.23;;;8.70;99.90;;;;;;5058171;28;20222;-82
2022/11/19 09:11:22;;;;;;;1.50;1.40;;;8.70;99.90;;;;;;5058786;28;20213;-82
2022/11/19 09:13:49;;;;;;;1.10;1.10;;;8.70;99.90;;;;;;5059928;28;20213;-82
2022/11/19 09:16:16;;;;;;;1.60;1.50;;;8.70;99.90;;;;;;5061681;28;20212;-83
2022/11/19 09:18:43;;;;;;;1.45;1.35;;;8.80;99.90;;;;;;5061270;28;20220;-83
2022/11/19 09:21:11;;;;;;;1.23;1.20;;;8.80;99.90;;;;;;5060913;28;20202;-85
2022/11/19 09:23:40;;;;;;;1.63;1.55;;;8.90;99.90;;;;;;5252219;22;20627;-82
2022/11/19 09:26:11;;;;;;;1.30;1.25;;;9.00;99.90;;;;;;5059446;28;20202;-84
2022/11/19 09:28:38;;;;;;;1.48;1.35;;;9.00;99.90;;;;;;5059827;28;20703;-84
2022/11/19 09:31:07;;;;;;;1.50;1.40;;;9.00;99.90;;;;;;5060144;28;20197;-84
2022/11/19 09:33:49;;;;;;;2.05;1.85;;;9.10;99.90;;;;;;5060728;28;20230;-84
2022/11/19 09:36:17;;;;;;;1.73;1.42;;;9.30;99.90;;;;;;5070536;22;20228;-84
2022/11/19 09:38:44;;;;;;;1.13;1.13;;;9.40;99.90;;;;;;5039400;28;20235;-84
2022/11/19 09:41:32;;;;;;;1.80;1.70;;;9.50;99.90;;;;;;5051077;28;20561;-85
2022/11/19 09:44:11;;;;;;;1.85;1.65;;;9.50;99.90;;;;;;5059201;28;20572;-86
2022/11/19 09:46:46;;;;;;;2.70;2.50;;;9.50;99.90;;;;;;5050510;28;20221;-85
2022/11/19 09:49:22;;;;;;;1.40;1.40;;;9.40;99.90;;;;;;5038308;28;20222;-85
2022/11/19 09:51:57;;;;;;;2.45;1.73;;;9.30;99.90;;;;;;5039131;28;20191;-85
2022/11/19 09:54:24;;;;;;;1.92;1.60;;;9.30;99.90;;;;;;5056065;28;20206;-85
2022/11/19 09:56:55;;;;;;;1.65;1.40;;;9.10;99.90;;;;;;5060125;28;20587;-85
2022/11/19 09:59:27;;;;;;;2.47;2.22;;;9.10;99.90;;;;;;5059651;28;20744;-85
2022/11/19 10:01:54;;;;;;;1.75;1.65;;;9.00;99.90;;;;;;5059734;28;20218;-85
2022/11/19 10:04:25;;;;;;;2.33;1.80;;;9.10;99.90;;;;;;5060245;28;20235;-85
2022/11/19 10:07:00;;;;;;;2.00;1.90;;;9.00;99.90;;;;;;5059949;28;20214;-85
2022/11/19 10:09:46;;;;;;;2.75;2.55;;;9.10;99.90;;;;;;5059598;28;20221;-85
2022/11/19 10:12:26;;;;;;;2.00;1.90;;;9.20;99.90;;;;;;5059588;28;20212;-85
2022/11/19 10:15:13;;;;;;;2.22;2.13;;;9.40;99.90;;;;;;5060516;28;20230;-85
2022/11/19 10:17:49;;;;;;;2.97;2.10;;;9.40;99.90;;;;;;5060137;28;20588;-86
2022/11/19 10:20:29;;;;;;;2.00;1.90;;;9.40;99.90;;;;;;5060942;28;20290;-85
2022/11/19 10:23:01;;;;;;;3.00;2.80;;;9.40;99.90;;;;;;5060893;28;20289;-85
2022/11/19 10:25:32;;;;;;;3.15;2.95;;;9.40;99.90;;;;;;5059640;28;20231;-85
2022/11/19 10:28:11;;;;;;;2.67;2.53;;;9.40;99.90;;;;;;5060635;28;20244;-85
2022/11/19 10:30:40;;;;;;;1.60;1.50;;;9.40;99.90;;;;;;5060557;28;20214;-85
2022/11/19 10:33:14;;;;;;;1.92;1.83;;;9.40;99.90;;;;;;5060359;28;20222;-85
2022/11/19 10:35:44;;;;;;;2.67;2.40;;;9.30;99.90;;;;;;5060735;28;20258;-85
2022/11/19 10:38:18;;;;;;;2.67;1.95;;;9.20;99.90;;;;;;5059649;28;20672;-85
2022/11/19 10:40:50;;;;;;;2.03;1.92;;;9.30;99.90;;;;;;5059347;28;20201;-85
2022/11/19 10:43:34;;;;;;;2.25;1.95;;;9.30;99.90;;;;;;5058999;28;20198;-86
2022/11/19 10:46:04;;;;;;;2.60;1.65;;;9.20;99.90;;;;;;5059511;28;20341;-85
2022/11/19 10:48:39;;;;;;;3.35;3.15;;;9.30;99.90;;;;;;5059243;28;20235;-85
2022/11/19 10:51:13;;;;;;;2.50;2.30;;;9.30;99.90;;;;;;5059236;28;20592;-84
2022/11/19 10:53:41;;;;;;;9.48;3.80;;;9.30;99.90;;;;;;5059287;28;20222;-85
2022/11/19 10:56:13;;;;;;;3.00;2.10;;;9.30;99.90;;;;;;5058829;28;20230;-85
2022/11/19 10:58:46;;;;;;;1.65;1.55;;;9.40;99.90;;;;;;5059217;28;20222;-85
2022/11/19 11:01:22;;;;;;;4.00;2.47;;;9.60;99.90;;;;;;5059613;28;20217;-85
2022/11/19 11:03:54;;;;;;;2.20;2.00;;;9.60;99.90;;;;;;5059200;28;20207;-85
2022/11/19 11:06:24;;;;;;;1.70;1.60;;;9.60;99.90;;;;;;5044411;28;20227;-87
2022/11/19 11:08:52;;;;;;;3.42;3.13;;;9.50;99.90;;;;;;5057800;28;20227;-85
2022/11/19 11:11:24;;;;;;;2.22;2.13;;;9.40;99.90;;;;;;5040862;28;20208;-85
2022/11/19 11:16:47;;;;;;;2.17;2.08;;;9.50;99.90;;;;;;5052294;28;20233;-86
2022/11/19 11:19:19;;;;;;;1.95;1.85;;;9.30;99.90;;;;;;5038992;28;20228;-87
2022/11/19 11:21:51;;;;;;;1.52;1.45;;;9.10;99.90;;;;;;5032960;28;20202;-85
2022/11/19 11:24:20;;;;;;;5.00;1.95;;;9.00;99.90;;;;;;5045808;28;20207;-86
2022/11/19 11:26:47;;;;;;;2.45;1.80;;;8.80;99.90;;;;;;5051789;28;20222;-87
2022/11/19 11:29:28;;;;;;;2.28;2.08;;;8.80;99.90;;;;;;5039901;28;20218;-86
2022/11/19 11:31:57;;;;;;;1.50;1.40;;;8.80;99.90;;;;;;5032600;28;20230;-87
2022/11/19 11:34:34;;;;;;;1.23;1.15;;;8.90;99.90;;;;;;5044157;28;20216;-87
2022/11/19 11:37:05;;;;;;;1.65;1.52;;;8.90;99.90;;;;;;5046322;28;20206;-87
2022/11/19 11:39:37;;;;;;;1.20;1.20;;;8.90;99.90;;;;;;5032190;28;20207;-86
2022/11/19 11:42:11;;;;;;;1.40;1.30;;;9.00;99.90;;;;;;5034476;28;20198;-86
2022/11/19 11:44:51;;;;;;;1.65;0.80;;;8.90;99.90;;;;;;5041302;28;20207;-87
2022/11/19 11:47:22;;;;;;;2.35;1.40;;;9.10;99.90;;;;;;5032373;28;20215;-87
2022/11/19 11:50:03;;;;;;;1.02;1.02;;;9.10;99.90;;;;;;5031850;28;20608;-86
2022/11/19 11:52:40;;;;;;;1.70;1.50;;;9.10;99.90;;;;;;5039524;28;20208;-86
2022/11/19 11:55:14;;;;;;;1.80;1.05;;;9.00;99.90;;;;;;5049465;28;20310;-87
2022/11/19 11:57:54;;;;;;;0.80;0.70;;;8.80;99.90;;;;;;5041259;28;20208;-87
2022/11/19 12:01:06;;;;;;;4.78;1.30;;;8.70;99.90;;;;;;5040797;28;20277;-86
2022/11/19 12:03:34;;;;;;;1.48;0.95;;;8.60;99.90;;;;;;5020220;28;20248;-87
2022/11/19 12:06:13;;;;;;;1.10;1.02;;;8.70;99.90;;;;;;5052264;28;20230;-87
2022/11/19 12:08:48;;;;;;;1.08;1.02;;;8.60;99.90;;;;;;5051266;28;20225;-86
2022/11/19 12:11:25;;;;;;;1.35;1.35;;;8.60;99.90;;;;;;5052608;28;20613;-87
2022/11/19 12:14:04;;;;;;;1.50;1.40;;;8.40;99.90;;;;;;5034049;28;20206;-86
2022/11/19 12:16:46;;;;;;;1.35;1.25;;;8.40;99.90;;;;;;5046408;28;20224;-87
2022/11/19 12:19:37;;;;;;;1.48;1.38;;;8.40;99.90;;;;;;5051659;28;20197;-86
2022/11/19 12:22:13;;;;;;;2.13;0.85;;;8.40;99.90;;;;;;5012686;28;20211;-86
2022/11/19 12:25:01;;;;;;;0.90;0.90;;;8.50;99.90;;;;;;5018726;28;20588;-86
2022/11/19 12:27:53;;;;;;;;;;;;;;;;;;;;;
2022/11/19 12:30:30;;;;;;;2.50;1.40;;;8.40;99.90;;;;;;5043768;28;20221;-86
2022/11/19 12:33:22;;;;;;;1.75;1.65;;;8.50;99.90;;;;;;5032996;28;20202;-85
2022/11/19 12:36:01;;;;;;;1.05;0.98;;;8.50;99.90;;;;;;5031033;28;20231;-86
2022/11/19 12:45:42;;;;;;;1.58;1.20;;;8.40;99.90;;;;;;4961004;28;20252;-85
2022/11/19 12:48:44;;;;;;;1.42;0.75;;;8.50;99.90;;;;;;5031424;28;20197;-85
2022/11/19 12:51:45;;;;;;;1.30;1.20;;;8.40;99.90;;;;;;5054148;28;20201;-85
2022/11/19 12:54:37;;;;;;;1.70;1.60;;;8.40;99.90;;;;;;5047080;28;20252;-86
2022/11/19 12:57:55;;;;;;;1.20;1.20;;;8.30;99.90;;;;;;5036017;28;20206;-86
2022/11/19 13:00:24;;;;;;;1.20;1.20;;;8.40;99.90;;;;;;5019443;28;20696;-84
2022/11/19 13:03:04;;;;;;;1.50;1.40;;;8.40;99.90;;;;;;5024615;28;20203;-85
2022/11/19 13:05:39;;;;;;;1.02;1.02;;;8.40;99.90;;;;;;5059991;28;20224;-84
2022/11/19 13:08:16;;;;;;;1.15;1.15;;;8.40;99.90;;;;;;5062831;28;20235;-85
2022/11/19 13:10:47;;;;;;;1.65;1.25;;;8.30;99.90;;;;;;5046328;28;20194;-86
2022/11/19 13:13:24;;;;;;;2.53;1.30;;;8.20;99.90;;;;;;5048453;28;20484;-86
2022/11/19 13:15:57;;;;;;;1.48;1.38;;;8.30;99.90;;;;;;5035376;28;20313;-85
2022/11/19 13:18:29;;;;;;;1.30;1.20;;;8.20;99.90;;;;;;5035514;28;20213;-86
2022/11/19 13:21:00;;;;;;;1.63;1.00;;;8.30;99.90;;;;;;5034992;28;20268;-86
2022/11/19 13:26:23;;;;;;;1.88;1.70;;;8.30;99.90;;;;;;5033717;28;20233;-87
2022/11/19 13:28:54;;;;;;;1.50;1.40;;;8.30;99.90;;;;;;5049934;28;20228;-85
2022/11/19 13:31:30;;;;;;;2.53;2.33;;;8.30;99.90;;;;;;5055238;28;20391;-86
2022/11/19 13:34:01;;;;;;;1.85;1.52;;;8.30;99.90;;;;;;5038158;28;20209;-85
2022/11/19 13:36:35;;;;;;;3.50;1.63;;;8.30;99.90;;;;;;5034429;28;20719;-86
2022/11/19 13:39:13;;;;;;;2.47;2.15;;;8.30;99.90;;;;;;5035674;28;20567;-86
2022/11/19 13:44:40;;;;;;;1.20;1.10;;;8.20;99.90;;;;;;5032744;28;20194;-85
2022/11/19 13:47:17;;;;;;;2.08;1.85;;;8.10;99.90;;;;;;5046702;28;20725;-86
2022/11/19 13:50:26;;;;;;;1.90;1.80;;;8.10;99.90;;;;;;5053859;28;20229;-91
2022/11/19 13:52:57;;;;;;;1.88;1.63;;;8.20;99.90;;;;;;5034448;28;20565;-85
2022/11/19 13:55:34;;;;;;;2.50;2.30;;;8.10;99.90;;;;;;5034634;28;20234;-85
2022/11/19 13:58:11;;;;;;;2.08;1.88;;;8.00;99.90;;;;;;5053261;28;20197;-86
2022/11/19 14:00:38;;;;;;;2.13;1.60;;;8.00;99.90;;;;;;5054214;28;20205;-86
2022/11/19 14:03:32;;;;;;;2.25;1.90;;;8.00;99.90;;;;;;5035606;28;20199;-85
2022/11/19 14:06:19;;;;;;;1.83;1.70;;;8.00;99.90;;;;;;5034081;28;20231;-85
2022/11/19 14:09:08;;;;;;;5.57;2.42;;;8.00;99.90;;;;;;5034016;28;20293;-87
2022/11/19 14:11:58;;;;;;;1.80;1.70;;;8.10;99.90;;;;;;5052057;28;20208;-86
2022/11/19 14:27:02;;;;;;;1.90;1.77;;;8.40;99.90;;;;;;5043864;28;20283;-85
2022/11/19 14:29:51;;;;;;;2.00;1.90;;;8.30;99.90;;;;;;5035977;28;20251;-84
2022/11/19 14:32:27;;;;;;;1.80;1.65;;;8.30;99.90;;;;;;5035256;28;20201;-86
2022/11/19 14:35:15;;;;;;;2.20;2.00;;;8.30;99.90;;;;;;5033069;28;20230;-85
2022/11/19 14:37:45;;;;;;;2.78;2.30;;;8.30;99.90;;;;;;5040428;28;20225;-85